Sacramento International Airport
KSMF : now visible

Airfield :











YOU CAN JOIN US ON...

 
LOGIN :

Register | Disclaimer

   EN    FR    IT 

 









Legend :    VFR   Marginal VFR   IFR   Intensive IFR   Very Intensive IFR
Visi :
Ceiling :
>= 8 km
>= 3000ft
5 to 8 km
1000 to 3000 ft
1500m to 5 km
500 to 1000 ft
800 to 1500m
200 to 500 ft
< 800m
< 200 ft
Symbols :   Thunderstorms  Fog  Heavy snow  Heavy precipitations  Wind > 20 kt






- Airport Elevation : 27 ft
- IATA code : SMF


KSMF - Sacramento International

CURRENT METAR :
  • 120316Z 23005KT 6SM -RA BR OVC030 12/11 A3021 RMK AO2 PRESRR P0001 T01220111

EXPIRED METARs :
  • 120253Z 15006KT 8SM -RA OVC027 12/11 A3018 RMK AO2 RAB34 SLP217 P0000 60001 T01220111 58012
  • 120153Z 15007KT 6SM BR OVC026 12/11 A3019 RMK AO2 SLP221 T01220111
  • 120053Z 12003KT 8SM OVC025 12/11 A3021 RMK AO2 RAB05E47 SLP228 P0001 T01220106

TAF KSMF
Valid from the 12 at 02:00 until the 13 at 00:00 UTC


120212Z 1202/1224 15005KT 6SM -SHRA BR OVC026
FM120300 15006KT 4SM -RA BR OVC025
FM120600 16008KT 3SM BR VCSH OVC015
FM121200 15009KT 4SM BR VCSH OVC015
TEMPO 1212/1215 2SM -RA BR OVC007



MET'MAP, your aeronautical weather chart ! - Copyright ORBIFLY December 2007 - Disclaimer

ORBIFLY MET'MAP TEAM :

Programming & Development : Alexandra Zaïnal
Concept & original design : Baudouin d'Aumeries
Assistance for programming : Marc-Olivier Méhu
Technical & hardware support : Manuel Goepfert

Contact : metmap@orbifly.com




SOURCES & CREDITS :

   NOAA       Earth
Advisory